createdAt,value
2023-04-04T00:00:47.667Z,72.60
2023-04-04T00:05:07.623Z,72.90
2023-04-04T00:09:27.311Z,73.20
2023-04-04T00:13:46.483Z,73.50
2023-04-04T00:18:06.293Z,73.90
2023-04-04T00:22:24.029Z,74.10
2023-04-04T00:26:42.112Z,74.40
2023-04-04T00:31:02.269Z,74.60
2023-04-04T00:35:21.723Z,74.80
2023-04-04T00:39:39.355Z,75.10
2023-04-04T00:43:57.828Z,75.30
2023-04-04T00:48:17.140Z,75.80
2023-04-04T00:52:37.562Z,75.80
2023-04-04T00:56:55.586Z,76.00
2023-04-04T01:01:15.792Z,76.20
2023-04-04T01:05:35.724Z,76.50
2023-04-04T01:09:58.206Z,76.80
2023-04-04T01:14:16.303Z,77.20
2023-04-04T01:18:35.946Z,77.50
2023-04-04T01:22:58.088Z,77.90
2023-04-04T01:27:17.925Z,78.40
2023-04-04T01:31:53.402Z,78.90
2023-04-04T01:36:18.290Z,79.50
2023-04-04T01:40:42.501Z,79.90
2023-04-04T01:45:03.918Z,80.40
2023-04-04T01:49:27.185Z,80.80
2023-04-04T01:53:47.643Z,81.20
2023-04-04T01:58:05.808Z,81.60
2023-04-04T02:02:25.241Z,82.10
2023-04-04T02:06:45.463Z,82.60
2023-04-04T02:11:03.152Z,83.40
2023-04-04T02:15:21.010Z,83.70
2023-04-04T02:19:40.808Z,84.20
2023-04-04T02:24:00.399Z,84.60
2023-04-04T02:28:18.297Z,85.10
2023-04-04T02:32:36.579Z,85.60
2023-04-04T02:36:58.873Z,86.20
2023-04-04T02:41:21.973Z,86.80
2023-04-04T02:45:40.133Z,87.40
2023-04-04T02:50:19.883Z,88.10
2023-04-04T02:54:46.322Z,88.60
2023-04-04T02:59:17.185Z,89.10
2023-04-04T03:03:35.136Z,89.30
2023-04-04T03:07:56.303Z,89.50
2023-04-04T03:12:15.455Z,89.80
2023-04-04T03:16:35.436Z,90.00
2023-04-04T03:20:53.503Z,90.20
2023-04-04T03:25:11.899Z,90.40
2023-04-04T03:29:31.260Z,90.50
2023-04-04T03:33:50.539Z,90.60
2023-04-04T03:38:08.875Z,90.80
2023-04-04T03:42:27.147Z,90.90
2023-04-04T03:46:46.016Z,91.20
2023-04-04T03:51:06.154Z,91.50
2023-04-04T03:55:24.064Z,91.90
2023-04-04T03:59:45.092Z,92.20
2023-04-04T04:04:04.516Z,92.60
2023-04-04T04:08:25.260Z,93.00
2023-04-04T04:12:45.762Z,93.20
2023-04-04T04:17:04.041Z,93.30
2023-04-04T04:21:22.805Z,93.30
2023-04-04T04:25:42.609Z,93.40
2023-04-04T04:30:10.656Z,93.60
2023-04-04T04:34:33.956Z,93.70
2023-04-04T04:38:54.110Z,93.80
2023-04-04T04:43:13.360Z,94.00
2023-04-04T04:47:32.790Z,94.10
2023-04-04T04:51:55.606Z,94.30
2023-04-04T04:56:15.046Z,94.90
2023-04-04T05:00:34.896Z,95.20
2023-04-04T05:04:53.109Z,95.40
2023-04-04T05:09:10.942Z,95.20
2023-04-04T05:13:33.306Z,94.90
2023-04-04T05:17:53.751Z,94.80
2023-04-04T05:22:14.153Z,94.90
2023-04-04T05:26:38.332Z,95.00
2023-04-04T05:30:58.637Z,95.00
2023-04-04T05:35:20.619Z,95.20
2023-04-04T05:39:39.538Z,95.20
2023-04-04T05:44:00.989Z,95.00
2023-04-04T05:48:22.273Z,94.80
2023-04-04T05:52:45.160Z,94.80
2023-04-04T05:57:06.264Z,94.90
2023-04-04T06:01:36.517Z,94.40
2023-04-04T06:06:04.712Z,94.10
2023-04-04T06:10:25.171Z,95.00
2023-04-04T06:14:46.334Z,95.30
2023-04-04T06:19:07.455Z,94.50
2023-04-04T06:23:29.184Z,92.60
2023-04-04T06:27:46.335Z,91.30
2023-04-04T06:32:05.361Z,90.10
2023-04-04T06:36:31.794Z,87.10
2023-04-04T06:40:54.433Z,85.00
2023-04-04T06:45:13.972Z,80.50
2023-04-04T06:49:32.123Z,79.30
2023-04-04T06:53:50.479Z,80.50
2023-04-04T06:58:09.661Z,80.80
2023-04-04T07:02:29.572Z,78.30
2023-04-04T07:06:47.344Z,77.30
2023-04-04T07:11:06.431Z,71.50
2023-04-04T07:15:28.821Z,69.40
2023-04-04T07:19:47.555Z,69.90
2023-04-04T07:24:06.189Z,69.10
2023-04-04T07:28:23.860Z,68.20
2023-04-04T07:32:43.088Z,67.50
2023-04-04T07:37:03.049Z,66.70
2023-04-04T07:41:21.343Z,66.20
2023-04-04T07:45:39.136Z,65.80
2023-04-04T07:49:58.888Z,62.90
2023-04-04T07:54:18.401Z,56.40
2023-04-04T07:58:36.874Z,52.60
2023-04-04T08:02:54.922Z,50.90
2023-04-04T08:07:14.209Z,51.10
2023-04-04T08:11:33.734Z,47.90
2023-04-04T08:15:51.653Z,46.70
2023-04-04T08:20:10.651Z,44.70
2023-04-04T08:24:28.907Z,44.60
2023-04-04T08:28:49.132Z,44.60
2023-04-04T08:33:07.002Z,42.70
2023-04-04T08:37:24.910Z,41.80
2023-04-04T08:41:47.162Z,40.40
2023-04-04T08:46:10.182Z,39.70
2023-04-04T08:50:32.357Z,39.70
2023-04-04T08:54:50.139Z,38.70
2023-04-04T08:59:11.487Z,39.50
2023-04-04T09:03:31.230Z,38.00
2023-04-04T09:07:51.371Z,35.60
2023-04-04T09:12:11.196Z,36.30
2023-04-04T09:16:30.434Z,35.00
2023-04-04T09:20:50.600Z,35.30
2023-04-04T09:25:09.985Z,34.80
2023-04-04T09:29:29.268Z,35.60
2023-04-04T09:33:50.475Z,38.00
2023-04-04T09:38:08.828Z,38.80
2023-04-04T09:42:26.816Z,40.10
2023-04-04T09:46:45.314Z,42.30
2023-04-04T09:51:05.907Z,42.00
2023-04-04T09:55:32.274Z,42.00
2023-04-04T09:59:51.397Z,42.60
2023-04-04T10:04:10.576Z,43.20
2023-04-04T10:08:32.199Z,43.60
2023-04-04T10:12:54.372Z,43.50
2023-04-04T10:17:13.592Z,45.90
2023-04-04T10:21:33.785Z,44.60
2023-04-04T10:25:53.109Z,44.30
2023-04-04T10:30:13.836Z,43.70
2023-04-04T10:34:44.181Z,42.60
2023-04-04T10:39:10.217Z,41.60
2023-04-04T10:43:34.077Z,41.70
2023-04-04T10:47:52.887Z,42.50
2023-04-04T10:52:12.166Z,42.70
2023-04-04T10:56:32.097Z,43.60
2023-04-04T11:00:56.850Z,43.00
2023-04-04T11:05:16.531Z,42.80
2023-04-04T11:09:48.885Z,43.10
2023-04-04T11:14:11.740Z,40.40
2023-04-04T11:18:49.983Z,39.20
2023-04-04T11:23:12.543Z,39.00
2023-04-04T11:27:31.717Z,40.00
2023-04-04T11:31:52.317Z,41.30
2023-04-04T11:36:49.713Z,41.40
2023-04-04T11:41:07.951Z,41.10
2023-04-04T11:45:27.710Z,38.50
2023-04-04T11:49:48.128Z,37.50
2023-04-04T11:54:16.126Z,38.20
2023-04-04T11:58:37.145Z,38.50
2023-04-04T12:02:57.182Z,38.20
2023-04-04T12:07:15.469Z,38.60
2023-04-04T12:11:38.523Z,39.20
2023-04-04T12:15:57.807Z,39.80
2023-04-04T12:20:18.078Z,40.50
2023-04-04T12:24:36.253Z,40.80
2023-04-04T12:28:57.307Z,41.00
2023-04-04T12:33:15.167Z,40.30
2023-04-04T12:37:34.364Z,40.90
2023-04-04T12:41:55.131Z,41.50
2023-04-04T12:46:13.554Z,42.40
2023-04-04T12:50:33.306Z,43.00
2023-04-04T12:55:06.690Z,42.90
2023-04-04T12:59:31.055Z,43.00
2023-04-04T13:03:51.130Z,43.20
2023-04-04T13:08:11.559Z,43.20
2023-04-04T13:12:56.805Z,43.00
2023-04-04T13:17:14.361Z,43.20
2023-04-04T13:21:33.307Z,43.40
2023-04-04T13:25:53.035Z,42.60
2023-04-04T13:30:12.069Z,42.30
2023-04-04T13:34:34.025Z,42.90
2023-04-04T13:38:54.938Z,43.00
2023-04-04T13:43:15.263Z,43.10
2023-04-04T13:47:32.610Z,43.30
2023-04-04T13:51:50.623Z,43.10
2023-04-04T14:13:33.334Z,42.00
2023-04-04T14:17:51.319Z,41.80
2023-04-04T14:22:32.937Z,42.10
2023-04-04T14:26:54.673Z,42.30
2023-04-04T14:31:14.714Z,42.70
2023-04-04T14:35:35.892Z,42.90
2023-04-04T14:39:55.244Z,43.20
2023-04-04T14:44:13.397Z,43.20
2023-04-04T14:48:33.344Z,43.00
2023-04-04T14:52:53.034Z,43.00
2023-04-04T14:57:17.704Z,43.10
2023-04-04T15:01:41.653Z,42.60
2023-04-04T15:06:07.321Z,42.30
2023-04-04T15:10:31.517Z,41.50
2023-04-04T15:14:55.325Z,41.40
2023-04-04T15:19:19.277Z,41.20
2023-04-04T15:23:44.835Z,41.00
2023-04-04T15:28:08.869Z,41.30
2023-04-04T15:32:32.697Z,41.40
2023-04-04T15:36:59.560Z,40.90
2023-04-04T15:41:25.084Z,40.80
2023-04-04T15:45:49.165Z,41.00
2023-04-04T15:50:13.093Z,41.50
2023-04-04T15:54:37.235Z,42.10
2023-04-04T15:59:02.759Z,42.50
2023-04-04T16:03:26.926Z,42.80
2023-04-04T16:07:51.411Z,42.90
2023-04-04T16:12:15.390Z,43.50
2023-04-04T16:16:41.396Z,43.90
2023-04-04T16:21:05.822Z,44.30
2023-04-04T16:25:30.234Z,44.60
2023-04-04T16:29:54.256Z,44.70
2023-04-04T16:34:21.077Z,44.90
2023-04-04T16:38:45.139Z,45.40
2023-04-04T16:43:09.513Z,45.60
2023-04-04T16:47:33.377Z,45.70
2023-04-04T16:51:58.606Z,45.80
2023-04-04T16:56:22.566Z,45.80
2023-04-04T17:00:46.511Z,45.90
2023-04-04T17:05:10.825Z,46.10
2023-04-04T17:09:36.055Z,46.20
2023-04-04T17:14:00.144Z,46.30
2023-04-04T17:18:24.102Z,46.30
2023-04-04T17:22:49.759Z,46.30
2023-04-04T17:27:15.063Z,46.50
2023-04-04T17:31:40.329Z,46.70
2023-04-04T17:36:04.622Z,47.00
2023-04-04T17:40:28.427Z,47.20
2023-04-04T17:44:54.103Z,47.40
2023-04-04T17:49:20.188Z,47.60
2023-04-04T17:53:44.923Z,47.90
2023-04-04T17:58:09.132Z,48.20
2023-04-04T18:02:34.619Z,48.50
2023-04-04T18:06:59.080Z,48.90
2023-04-04T18:11:23.133Z,49.50
2023-04-04T18:15:47.282Z,50.10
2023-04-04T18:20:18.531Z,50.70
2023-04-04T18:24:48.817Z,51.20
2023-04-04T18:29:13.320Z,51.80
2023-04-04T18:33:37.121Z,52.10
2023-04-04T18:38:02.381Z,52.50
2023-04-04T18:42:26.477Z,52.80
2023-04-04T18:46:50.367Z,53.20
2023-04-04T18:51:15.764Z,53.40
2023-04-04T18:55:41.101Z,53.60
2023-04-04T19:00:06.806Z,53.80
2023-04-04T19:04:33.316Z,53.90
2023-04-04T19:08:58.958Z,54.10
2023-04-04T19:13:27.191Z,54.10
2023-04-04T19:17:51.434Z,54.30
2023-04-04T19:22:15.243Z,54.40
2023-04-04T19:26:39.061Z,54.50
2023-04-04T19:31:10.889Z,54.70
2023-04-04T19:35:53.833Z,54.90
2023-04-04T19:40:39.792Z,55.20
2023-04-04T19:45:10.894Z,55.40
2023-04-04T19:49:38.171Z,55.50
2023-04-04T19:54:02.094Z,55.60
2023-04-04T19:58:26.166Z,55.80
2023-04-04T20:02:56.950Z,56.00
2023-04-04T20:07:22.521Z,56.20
2023-04-04T20:11:46.427Z,56.40
2023-04-04T20:16:12.616Z,56.30
2023-04-04T20:20:48.865Z,56.50
2023-04-04T20:25:40.870Z,56.70
2023-04-04T20:30:10.638Z,56.70
2023-04-04T20:34:41.996Z,56.80
2023-04-04T20:39:29.508Z,56.90
2023-04-04T20:43:57.275Z,56.90
2023-04-04T20:48:36.853Z,57.10
2023-04-04T20:53:03.077Z,57.50
2023-04-04T20:57:25.644Z,57.50
2023-04-04T21:01:50.992Z,57.60
2023-04-04T21:06:16.700Z,57.90
2023-04-04T21:10:50.447Z,58.10
2023-04-04T21:15:22.487Z,58.50
2023-04-04T21:19:50.158Z,59.00
2023-04-04T21:24:14.917Z,59.40
2023-04-04T21:28:40.209Z,59.80
2023-04-04T21:33:04.282Z,60.20
2023-04-04T21:37:29.696Z,60.60
2023-04-04T21:41:56.569Z,61.10
2023-04-04T21:46:20.879Z,61.50
2023-04-04T21:50:44.730Z,61.70
2023-04-04T21:55:10.834Z,61.90
2023-04-04T21:59:34.878Z,62.10
2023-04-04T22:03:58.794Z,62.80
2023-04-04T22:08:23.787Z,63.60
2023-04-04T22:12:49.998Z,63.90
2023-04-04T22:17:22.904Z,63.90
2023-04-04T22:21:48.641Z,64.10
2023-04-04T22:26:18.118Z,64.30
2023-04-04T22:30:43.662Z,64.60
2023-04-04T22:35:08.393Z,64.70
2023-04-04T22:39:32.206Z,64.70
2023-04-04T22:43:56.155Z,64.90
2023-04-04T22:48:23.963Z,65.00
2023-04-04T22:52:48.289Z,65.10
2023-04-04T22:57:12.476Z,65.00
2023-04-04T23:01:36.773Z,65.00
2023-04-04T23:06:02.173Z,65.00
2023-04-04T23:10:25.946Z,65.00
2023-04-04T23:14:49.838Z,65.20
2023-04-04T23:19:14.134Z,65.40
2023-04-04T23:23:39.422Z,65.40
2023-04-04T23:28:03.500Z,65.50
2023-04-04T23:32:28.313Z,65.60
2023-04-04T23:36:52.366Z,65.70
2023-04-04T23:41:18.397Z,65.90
2023-04-04T23:45:42.373Z,66.10
2023-04-04T23:50:07.644Z,66.30
2023-04-04T23:54:31.584Z,66.50
2023-04-04T23:58:57.566Z,66.70
